Terminal Aerodrome Forecast
Issued by NWS Caribou, ME

Home | Current Version | Previous Version | Text Only | Print | Product List | Glossary On
Versions: 1 2 3 4 5 6 7 8 9 10 11 12 13 14 15 16 17 18 19 20
907
FTUS41 KCAR 101735
TAFBGR
TAF
KBGR 101735Z 1018/1118 20006KT P6SM SCT025 OVC035
     FM110000 VRB03KT P6SM VCSH OVC025
     FM110300 VRB03KT 3SM -SHSN OVC015
     FM110800 33006KT P6SM VCSH SCT015 OVC025
     FM111200 33006KT P6SM BKN025
     FM111400 33006KT P6SM BKN035=

USA.gov is the U.S. government's official web portal to all federal, state and local government web resources and services.